createdAt,value
2017-07-27T00:00:29.016Z,0
2017-07-27T00:01:28.999Z,0
2017-07-27T00:02:29.000Z,0
2017-07-27T00:03:28.980Z,0
2017-07-27T00:04:28.342Z,0
2017-07-27T00:05:28.628Z,0
2017-07-27T00:06:28.913Z,0
2017-07-27T00:07:28.616Z,0
2017-07-27T00:08:28.590Z,0
2017-07-27T00:09:28.879Z,0
2017-07-27T00:10:28.868Z,0
2017-07-27T00:11:28.554Z,0
2017-07-27T00:12:28.842Z,0
2017-07-27T00:13:28.821Z,0
2017-07-27T00:14:28.202Z,0
2017-07-27T00:15:28.775Z,0
2017-07-27T00:16:28.766Z,0
2017-07-27T00:17:28.748Z,0
2017-07-27T00:18:28.725Z,0
2017-07-27T00:19:28.716Z,0
2017-07-27T00:20:28.396Z,0
2017-07-27T00:21:28.671Z,0
2017-07-27T00:22:28.675Z,0
2017-07-27T00:23:28.361Z,0
2017-07-27T00:24:28.636Z,0
2017-07-27T00:25:28.634Z,0
2017-07-27T00:26:28.613Z,0
2017-07-27T00:27:28.604Z,0
2017-07-27T00:28:28.285Z,0
2017-07-27T00:29:27.952Z,0
2017-07-27T00:30:28.553Z,0
2017-07-27T00:31:28.532Z,0
2017-07-27T00:32:28.522Z,0
2017-07-27T00:33:28.507Z,0
2017-07-27T00:34:28.511Z,0
2017-07-27T00:35:28.480Z,0
2017-07-27T00:36:28.468Z,0
2017-07-27T00:37:28.443Z,0
2017-07-27T00:38:28.417Z,0
2017-07-27T00:39:27.811Z,0
2017-07-27T00:40:28.100Z,0
2017-07-27T00:41:28.385Z,0
2017-07-27T00:42:28.358Z,0
2017-07-27T00:43:28.354Z,0
2017-07-27T00:44:27.729Z,0
2017-07-27T00:45:28.024Z,0
2017-07-27T00:46:28.302Z,0
2017-07-27T00:47:27.678Z,0
2017-07-27T00:48:27.982Z,0
2017-07-27T00:49:28.270Z,0
2017-07-27T00:50:27.948Z,0
2017-07-27T00:51:28.228Z,0
2017-07-27T00:52:27.926Z,0
2017-07-27T00:53:27.909Z,0
2017-07-27T00:54:28.179Z,0
2017-07-27T00:55:28.162Z,0
2017-07-27T00:56:28.152Z,0
2017-07-27T00:57:28.131Z,0
2017-07-27T00:58:27.828Z,0
2017-07-27T00:59:27.812Z,0
2017-07-27T01:00:28.091Z,0
2017-07-27T01:01:28.090Z,0
2017-07-27T01:02:27.764Z,0
2017-07-27T01:03:27.744Z,0
2017-07-27T01:04:28.035Z,0
2017-07-27T01:05:28.013Z,0
2017-07-27T01:06:27.993Z,0
2017-07-27T01:07:27.674Z,0
2017-07-27T01:08:27.970Z,0
2017-07-27T01:09:27.657Z,0
2017-07-27T01:10:27.938Z,0
2017-07-27T01:11:27.917Z,0
2017-07-27T01:12:27.908Z,0
2017-07-27T01:13:27.884Z,0
2017-07-27T01:14:27.581Z,0
2017-07-27T01:15:27.869Z,0
2017-07-27T01:16:27.838Z,0
2017-07-27T01:17:27.845Z,0
2017-07-27T01:18:27.814Z,0
2017-07-27T01:19:27.496Z,0
2017-07-27T01:20:27.486Z,0
2017-07-27T01:21:27.769Z,0
2017-07-27T01:22:27.766Z,0
2017-07-27T01:23:27.444Z,0
2017-07-27T01:24:27.410Z,0
2017-07-27T01:25:27.708Z,0
2017-07-27T01:26:27.401Z,0
2017-07-27T01:27:27.675Z,0
2017-07-27T01:28:27.688Z,0
2017-07-27T01:29:27.631Z,0
2017-07-27T01:30:27.625Z,0
2017-07-27T01:31:27.316Z,0
2017-07-27T01:32:27.604Z,0
2017-07-27T01:33:27.284Z,0
2017-07-27T01:34:27.579Z,0
2017-07-27T01:35:27.547Z,0
2017-07-27T01:36:27.251Z,0
2017-07-27T01:37:27.522Z,0
2017-07-27T01:38:27.206Z,0
2017-07-27T01:39:27.494Z,0
2017-07-27T01:40:27.153Z,0
2017-07-27T01:41:27.158Z,0
2017-07-27T01:42:27.458Z,0
2017-07-27T01:43:27.431Z,0
2017-07-27T01:44:27.403Z,0
2017-07-27T01:45:27.391Z,0
2017-07-27T01:46:27.386Z,0
2017-07-27T01:47:27.362Z,0
2017-07-27T01:48:27.352Z,0
2017-07-27T01:49:27.048Z,0
2017-07-27T01:50:27.322Z,0
2017-07-27T01:51:27.300Z,0
2017-07-27T01:52:27.281Z,0
2017-07-27T01:53:27.282Z,0
2017-07-27T01:54:27.274Z,0
2017-07-27T01:55:27.246Z,0
2017-07-27T01:56:27.235Z,0
2017-07-27T01:57:27.212Z,0
2017-07-27T01:58:26.892Z,0
2017-07-27T01:59:27.193Z,0
2017-07-27T02:00:27.173Z,0
2017-07-27T02:01:27.160Z,0
2017-07-27T02:02:27.150Z,0
2017-07-27T02:03:26.516Z,0
2017-07-27T02:04:27.107Z,0
2017-07-27T02:05:26.799Z,0
2017-07-27T02:06:26.770Z,0
2017-07-27T02:07:27.064Z,0
2017-07-27T02:08:27.047Z,0
2017-07-27T02:09:27.031Z,0
2017-07-27T02:10:26.409Z,0
2017-07-27T02:11:27.008Z,0
2017-07-27T02:12:26.988Z,0
2017-07-27T02:13:26.670Z,0
2017-07-27T02:14:26.642Z,0
2017-07-27T02:15:26.628Z,0
2017-07-27T02:16:26.625Z,0
2017-07-27T02:17:26.599Z,0
2017-07-27T02:18:26.585Z,0
2017-07-27T02:19:26.263Z,0
2017-07-27T02:20:26.559Z,0
2017-07-27T02:21:26.564Z,0
2017-07-27T02:22:26.810Z,0
2017-07-27T02:23:26.820Z,0
2017-07-27T02:24:26.790Z,0
2017-07-27T02:25:26.487Z,0
2017-07-27T02:26:26.758Z,0
2017-07-27T02:27:26.437Z,0
2017-07-27T02:28:26.727Z,0
2017-07-27T02:29:26.701Z,0
2017-07-27T02:30:26.718Z,0
2017-07-27T02:31:26.680Z,0
2017-07-27T02:32:26.066Z,0
2017-07-27T02:33:26.666Z,0
2017-07-27T02:34:26.642Z,0
2017-07-27T02:35:26.621Z,0
2017-07-27T02:36:26.611Z,0
2017-07-27T02:37:26.586Z,0
2017-07-27T02:38:26.580Z,0
2017-07-27T02:39:25.962Z,0
2017-07-27T02:40:25.939Z,0
2017-07-27T02:41:25.930Z,0
2017-07-27T02:42:26.513Z,0
2017-07-27T02:43:26.499Z,0
2017-07-27T02:44:26.185Z,0
2017-07-27T02:45:26.475Z,0
2017-07-27T02:46:26.144Z,0
2017-07-27T02:47:26.443Z,0
2017-07-27T02:48:26.412Z,0
2017-07-27T02:49:26.410Z,0
2017-07-27T02:50:26.391Z,0
2017-07-27T02:51:26.079Z,0
2017-07-27T02:52:26.057Z,0
2017-07-27T02:53:26.336Z,0
2017-07-27T02:54:26.032Z,0
2017-07-27T02:55:26.006Z,0
2017-07-27T02:56:26.298Z,0
2017-07-27T02:57:25.981Z,0
2017-07-27T02:58:25.959Z,0
2017-07-27T02:59:25.949Z,0
2017-07-27T03:00:26.213Z,0
2017-07-27T03:01:26.221Z,0
2017-07-27T03:02:26.204Z,0
2017-07-27T03:03:26.170Z,0
2017-07-27T03:04:25.872Z,0
2017-07-27T03:05:26.153Z,0
2017-07-27T03:06:26.133Z,0
2017-07-27T03:07:26.119Z,0
2017-07-27T03:08:26.113Z,0
2017-07-27T03:09:26.085Z,0
2017-07-27T03:10:26.078Z,0
2017-07-27T03:11:26.078Z,0
2017-07-27T03:12:26.044Z,0
2017-07-27T03:13:26.025Z,0
2017-07-27T03:14:26.032Z,0
2017-07-27T03:15:25.999Z,0
2017-07-27T03:16:25.972Z,0
2017-07-27T03:17:25.973Z,0
2017-07-27T03:18:25.950Z,0
2017-07-27T03:19:25.933Z,0
2017-07-27T03:20:25.916Z,0
2017-07-27T03:21:25.907Z,0
2017-07-27T03:22:25.907Z,0
2017-07-27T03:23:25.889Z,0
2017-07-27T03:24:25.880Z,0
2017-07-27T03:25:25.845Z,0
2017-07-27T03:26:25.836Z,0
2017-07-27T03:27:25.824Z,0
2017-07-27T03:28:25.495Z,0
2017-07-27T03:29:25.786Z,0
2017-07-27T03:30:25.779Z,0
2017-07-27T03:31:25.755Z,0
2017-07-27T03:32:25.755Z,0
2017-07-27T03:33:25.734Z,0
2017-07-27T03:34:25.417Z,0
2017-07-27T03:35:25.392Z,0
2017-07-27T03:36:25.102Z,0
2017-07-27T03:37:25.684Z,0
2017-07-27T03:38:25.646Z,0
2017-07-27T03:39:25.652Z,0
2017-07-27T03:40:25.622Z,0
2017-07-27T03:41:25.299Z,0
2017-07-27T03:42:25.595Z,0
2017-07-27T03:43:25.581Z,0
2017-07-27T03:44:25.260Z,0
2017-07-27T03:45:25.247Z,5
2017-07-27T03:46:25.540Z,5
2017-07-27T03:47:25.565Z,5
2017-07-27T03:48:25.499Z,5
2017-07-27T03:49:25.481Z,5
2017-07-27T03:50:25.472Z,5
2017-07-27T03:51:25.458Z,5
2017-07-27T03:52:25.426Z,5
2017-07-27T03:53:25.423Z,10
2017-07-27T03:54:25.396Z,10
2017-07-27T03:55:25.394Z,10
2017-07-27T03:56:25.415Z,10
2017-07-27T03:57:25.068Z,10
2017-07-27T03:58:25.350Z,10
2017-07-27T03:59:25.326Z,15
2017-07-27T04:00:25.338Z,15
2017-07-27T04:01:25.307Z,15
2017-07-27T04:02:25.296Z,15
2017-07-27T04:03:24.978Z,15
2017-07-27T04:04:25.288Z,20
2017-07-27T04:05:24.953Z,20
2017-07-27T04:06:25.242Z,20
2017-07-27T04:07:24.924Z,20
2017-07-27T04:08:25.208Z,20
2017-07-27T04:09:25.194Z,25
2017-07-27T04:10:24.869Z,25
2017-07-27T04:11:25.179Z,25
2017-07-27T04:12:24.848Z,25
2017-07-27T04:13:25.139Z,25
2017-07-27T04:14:25.137Z,30
2017-07-27T04:15:25.113Z,30
2017-07-27T04:16:25.099Z,30
2017-07-27T04:17:25.080Z,30
2017-07-27T04:18:25.074Z,30
2017-07-27T04:19:25.059Z,35
2017-07-27T04:20:24.727Z,35
2017-07-27T04:21:25.029Z,35
2017-07-27T04:22:24.709Z,35
2017-07-27T04:23:24.994Z,35
2017-07-27T04:24:24.691Z,40
2017-07-27T04:25:24.961Z,40
2017-07-27T04:26:24.656Z,40
2017-07-27T04:27:24.945Z,40
2017-07-27T04:28:24.921Z,40
2017-07-27T04:29:24.625Z,45
2017-07-27T04:30:24.614Z,45
2017-07-27T04:31:24.594Z,45
2017-07-27T04:32:24.868Z,45
2017-07-27T04:33:24.561Z,45
2017-07-27T04:34:24.540Z,50
2017-07-27T04:35:24.532Z,50
2017-07-27T04:36:24.527Z,50
2017-07-27T04:37:24.816Z,50
2017-07-27T04:38:24.791Z,50
2017-07-27T04:39:24.772Z,50
2017-07-27T04:40:24.773Z,55
2017-07-27T04:41:24.748Z,55
2017-07-27T04:42:24.443Z,55
2017-07-27T04:43:24.741Z,55
2017-07-27T04:44:24.712Z,55
2017-07-27T04:45:24.390Z,55
2017-07-27T04:46:24.687Z,70
2017-07-27T04:47:24.671Z,105
2017-07-27T04:48:24.647Z,120
2017-07-27T04:49:24.642Z,125
2017-07-27T04:50:24.333Z,125
2017-07-27T04:51:24.627Z,130
2017-07-27T04:52:24.591Z,130
2017-07-27T04:53:24.589Z,135
2017-07-27T04:54:24.570Z,140
2017-07-27T04:55:24.552Z,140
2017-07-27T04:56:24.233Z,145
2017-07-27T04:57:24.248Z,150
2017-07-27T04:58:24.200Z,155
2017-07-27T04:59:24.497Z,155
2017-07-27T05:00:24.185Z,160
2017-07-27T05:01:23.868Z,165
2017-07-27T05:02:24.439Z,170
2017-07-27T05:03:24.427Z,175
2017-07-27T05:04:24.123Z,175
2017-07-27T05:05:24.416Z,180
2017-07-27T05:06:24.084Z,180
2017-07-27T05:07:24.368Z,180
2017-07-27T05:08:24.389Z,185
2017-07-27T05:09:24.344Z,195
2017-07-27T05:10:24.339Z,200
2017-07-27T05:11:23.729Z,205
2017-07-27T05:12:24.303Z,205
2017-07-27T05:13:23.980Z,210
2017-07-27T05:14:23.973Z,220
2017-07-27T05:15:23.973Z,225
2017-07-27T05:16:23.952Z,235
2017-07-27T05:17:24.237Z,245
2017-07-27T05:18:24.223Z,255
2017-07-27T05:19:24.224Z,265
2017-07-27T05:20:24.226Z,275
2017-07-27T05:21:24.174Z,290
2017-07-27T05:22:24.169Z,300
2017-07-27T05:23:24.161Z,310
2017-07-27T05:24:24.141Z,315
2017-07-27T05:25:24.136Z,310
2017-07-27T05:26:23.818Z,315
2017-07-27T05:27:24.094Z,315
2017-07-27T05:28:24.083Z,310
2017-07-27T05:29:24.072Z,235
2017-07-27T05:30:24.078Z,265
2017-07-27T05:31:23.754Z,285
2017-07-27T05:32:24.041Z,320
2017-07-27T05:33:24.033Z,325
2017-07-27T05:34:24.003Z,330
2017-07-27T05:35:24.004Z,355
2017-07-27T05:36:23.994Z,365
2017-07-27T05:37:23.977Z,350
2017-07-27T05:38:23.958Z,360
2017-07-27T05:39:23.942Z,365
2017-07-27T05:40:23.942Z,305
2017-07-27T05:41:23.928Z,355
2017-07-27T05:42:23.916Z,355
2017-07-27T05:43:23.890Z,250
2017-07-27T05:44:23.879Z,255
2017-07-27T05:45:23.855Z,295
2017-07-27T05:46:23.854Z,255
2017-07-27T05:47:23.852Z,360
2017-07-27T05:48:23.847Z,285
2017-07-27T05:49:23.825Z,325
2017-07-27T05:50:23.795Z,300
2017-07-27T05:51:23.792Z,350
2017-07-27T05:52:23.789Z,330
2017-07-27T05:53:23.777Z,280
2017-07-27T05:54:23.445Z,300
2017-07-27T05:55:23.434Z,285
2017-07-27T05:56:23.712Z,255
2017-07-27T05:57:23.700Z,270
2017-07-27T05:58:23.699Z,270
2017-07-27T05:59:23.677Z,240
2017-07-27T06:00:23.668Z,245
2017-07-27T06:01:23.658Z,245
2017-07-27T06:02:23.655Z,240
2017-07-27T06:03:23.349Z,235
2017-07-27T06:04:23.630Z,230
2017-07-27T06:05:23.310Z,230
2017-07-27T06:06:23.279Z,235
2017-07-27T06:07:23.579Z,250
2017-07-27T06:08:23.275Z,270
2017-07-27T06:09:23.560Z,335
2017-07-27T06:10:23.239Z,305
2017-07-27T06:11:23.232Z,340
2017-07-27T06:12:23.208Z,330
2017-07-27T06:13:23.208Z,295
2017-07-27T06:14:23.497Z,295
2017-07-27T06:15:23.495Z,285
2017-07-27T06:16:23.455Z,290
2017-07-27T06:17:23.454Z,285
2017-07-27T06:18:23.126Z,275
2017-07-27T06:19:23.120Z,275
2017-07-27T06:20:23.412Z,280
2017-07-27T06:21:23.405Z,290
2017-07-27T06:22:23.407Z,295
2017-07-27T06:23:23.080Z,285
2017-07-27T06:24:23.358Z,275
2017-07-27T06:25:23.351Z,270
2017-07-27T06:26:23.336Z,280
2017-07-27T06:27:23.344Z,285
2017-07-27T06:28:23.326Z,305
2017-07-27T06:29:23.007Z,325
2017-07-27T06:30:23.284Z,350
2017-07-27T06:31:23.270Z,360
2017-07-27T06:32:23.255Z,360
2017-07-27T06:33:22.927Z,365
2017-07-27T06:34:23.256Z,370
2017-07-27T06:35:22.913Z,410
2017-07-27T06:36:23.215Z,435
2017-07-27T06:37:22.897Z,445
2017-07-27T06:38:23.186Z,465
2017-07-27T06:39:23.178Z,500
2017-07-27T06:40:22.867Z,485
2017-07-27T06:41:22.825Z,470
2017-07-27T06:42:23.127Z,480
2017-07-27T06:43:22.828Z,455
2017-07-27T06:44:22.806Z,460
2017-07-27T06:45:23.108Z,460
2017-07-27T06:46:22.472Z,465
2017-07-27T06:47:23.076Z,470
2017-07-27T06:48:22.759Z,465
2017-07-27T06:49:22.740Z,460
2017-07-27T06:50:23.027Z,425
2017-07-27T06:51:23.023Z,400
2017-07-27T06:52:23.009Z,380
2017-07-27T06:53:22.672Z,360
2017-07-27T06:54:22.981Z,355
2017-07-27T06:55:22.659Z,355
2017-07-27T06:56:22.942Z,350
2017-07-27T06:57:22.954Z,350
2017-07-27T06:58:22.918Z,355
2017-07-27T06:59:22.304Z,355
2017-07-27T07:00:22.596Z,355
2017-07-27T07:01:22.891Z,335
2017-07-27T07:02:22.567Z,315
2017-07-27T07:03:36.490Z,290
2017-07-27T07:04:22.764Z,285
2017-07-27T07:05:22.538Z,275
2017-07-27T07:06:22.539Z,265
2017-07-27T07:07:22.825Z,265
2017-07-27T07:08:22.818Z,270
2017-07-27T07:09:22.797Z,280
2017-07-27T07:10:22.790Z,290
2017-07-27T07:11:22.771Z,300
2017-07-27T07:12:22.753Z,310
2017-07-27T07:13:22.736Z,325
2017-07-27T07:14:22.742Z,330
2017-07-27T07:15:22.711Z,340
2017-07-27T07:16:22.699Z,335
2017-07-27T07:17:22.394Z,340
2017-07-27T07:18:22.678Z,345
2017-07-27T07:19:22.428Z,330
2017-07-27T07:20:22.048Z,315
2017-07-27T07:21:22.329Z,300
2017-07-27T07:22:22.632Z,285
2017-07-27T07:23:22.312Z,280
2017-07-27T07:24:22.616Z,285
2017-07-27T07:25:22.595Z,295
2017-07-27T07:26:22.566Z,310
2017-07-27T07:27:22.564Z,320
2017-07-27T07:28:22.573Z,330
2017-07-27T07:29:22.561Z,335
2017-07-27T07:30:22.533Z,350
2017-07-27T07:31:22.511Z,375
2017-07-27T07:32:22.495Z,375
2017-07-27T07:33:37.105Z,385
2017-07-27T07:34:22.490Z,400
2017-07-27T07:35:22.464Z,420
2017-07-27T07:36:22.441Z,435
2017-07-27T07:37:22.161Z,430
2017-07-27T07:38:22.447Z,425
2017-07-27T07:39:22.434Z,410
2017-07-27T07:40:22.615Z,400
2017-07-27T07:41:22.404Z,400
2017-07-27T07:42:22.394Z,400
2017-07-27T07:43:22.068Z,405
2017-07-27T07:44:22.377Z,400
2017-07-27T07:45:22.053Z,400
2017-07-27T07:46:22.046Z,420
2017-07-27T07:47:22.040Z,430
2017-07-27T07:48:22.324Z,435
2017-07-27T07:49:21.991Z,465
2017-07-27T07:50:22.291Z,495
2017-07-27T07:51:22.285Z,545
2017-07-27T07:52:22.282Z,595
2017-07-27T07:53:22.253Z,630
2017-07-27T07:54:22.249Z,640
2017-07-27T07:55:22.230Z,620
2017-07-27T07:56:22.241Z,615
2017-07-27T07:57:21.903Z,625
2017-07-27T07:58:21.894Z,610
2017-07-27T07:59:21.883Z,610
2017-07-27T08:00:21.868Z,605
2017-07-27T08:01:22.172Z,595
2017-07-27T08:02:22.145Z,565
2017-07-27T08:03:21.842Z,545
2017-07-27T08:04:21.808Z,525
2017-07-27T08:05:21.810Z,505
2017-07-27T08:06:22.103Z,490
2017-07-27T08:07:22.091Z,485
2017-07-27T08:08:21.759Z,470
2017-07-27T08:09:22.055Z,470
2017-07-27T08:10:22.029Z,480
2017-07-27T08:11:21.716Z,485
2017-07-27T08:12:22.024Z,495
2017-07-27T08:13:22.000Z,510
2017-07-27T08:14:22.000Z,530
2017-07-27T08:15:21.876Z,565
2017-07-27T08:16:21.365Z,595
2017-07-27T08:17:21.950Z,600
2017-07-27T08:18:21.933Z,585
2017-07-27T08:19:21.941Z,565
2017-07-27T08:20:21.903Z,540
2017-07-27T08:21:21.586Z,515
2017-07-27T08:22:21.907Z,490
2017-07-27T08:23:21.878Z,490
2017-07-27T08:24:21.871Z,495
2017-07-27T08:25:21.851Z,510
2017-07-27T08:26:21.838Z,505
2017-07-27T08:27:21.511Z,510
2017-07-27T08:28:21.502Z,510
2017-07-27T08:29:21.492Z,525
2017-07-27T08:30:21.786Z,565
2017-07-27T08:31:21.768Z,620
2017-07-27T08:32:21.451Z,670
2017-07-27T08:33:21.457Z,745
2017-07-27T08:34:21.122Z,780
2017-07-27T08:35:21.421Z,820
2017-07-27T08:36:21.095Z,865
2017-07-27T08:37:21.602Z,900
2017-07-27T08:38:21.678Z,915
2017-07-27T08:39:20.747Z,915
2017-07-27T08:40:21.655Z,855
2017-07-27T08:41:21.645Z,795
2017-07-27T08:42:21.629Z,780
2017-07-27T08:43:21.601Z,735
2017-07-27T08:44:21.588Z,700
2017-07-27T08:45:21.584Z,695
2017-07-27T08:46:21.470Z,725
2017-07-27T08:47:21.538Z,735
2017-07-27T08:48:21.232Z,780
2017-07-27T08:49:20.914Z,870
2017-07-27T08:50:21.507Z,970
2017-07-27T08:51:21.703Z,1035
2017-07-27T08:52:21.468Z,1040
2017-07-27T08:53:21.168Z,1045
2017-07-27T08:54:21.135Z,1030
2017-07-27T08:55:21.129Z,1030
2017-07-27T08:56:21.134Z,1015
2017-07-27T08:57:21.402Z,1000
2017-07-27T08:58:21.099Z,940
2017-07-27T08:59:21.389Z,900
2017-07-27T09:00:20.745Z,885
2017-07-27T09:01:21.351Z,870
2017-07-27T09:02:21.035Z,845
2017-07-27T09:03:21.015Z,850
2017-07-27T09:04:21.307Z,900
2017-07-27T09:05:21.289Z,940
2017-07-27T09:06:21.281Z,1000
2017-07-27T09:07:21.271Z,1045
2017-07-27T09:08:22.230Z,1025
2017-07-27T09:09:20.922Z,990
2017-07-27T09:10:20.915Z,940
2017-07-27T09:11:20.905Z,900
2017-07-27T09:12:21.103Z,875
2017-07-27T09:13:21.170Z,880
2017-07-27T09:14:21.174Z,885
2017-07-27T09:15:21.148Z,965
2017-07-27T09:16:20.531Z,1040
2017-07-27T09:17:34.467Z,1140
2017-07-27T09:18:21.104Z,1210
2017-07-27T09:19:21.109Z,1375
2017-07-27T09:20:21.086Z,1510
2017-07-27T09:21:20.472Z,1625
2017-07-27T09:22:20.967Z,1645
2017-07-27T09:23:20.428Z,1720
2017-07-27T09:24:20.408Z,1730
2017-07-27T09:25:21.001Z,1885
2017-07-27T09:26:20.372Z,2225
2017-07-27T09:27:20.969Z,2345
2017-07-27T09:28:20.673Z,2555
2017-07-27T09:29:20.966Z,2310
2017-07-27T09:30:21.152Z,2500
2017-07-27T09:31:20.611Z,2465
2017-07-27T09:32:20.923Z,2000
2017-07-27T09:33:20.597Z,1715
2017-07-27T09:34:20.877Z,1730
2017-07-27T09:35:20.882Z,1900
2017-07-27T09:36:20.852Z,2140
2017-07-27T09:37:20.545Z,2220
2017-07-27T09:38:20.532Z,2050
2017-07-27T09:39:20.817Z,1910
2017-07-27T09:40:20.495Z,1920
2017-07-27T09:41:20.484Z,2090
2017-07-27T09:42:20.170Z,2220
2017-07-27T09:43:20.449Z,2420
2017-07-27T09:44:20.781Z,2460
2017-07-27T09:45:20.126Z,2305
2017-07-27T09:46:20.732Z,2215
2017-07-27T09:47:20.621Z,2215
2017-07-27T09:48:20.291Z,2325
2017-07-27T09:49:20.074Z,2335
2017-07-27T09:50:20.357Z,2165
2017-07-27T09:51:20.655Z,2045
2017-07-27T09:52:20.627Z,1990
2017-07-27T09:53:20.620Z,1945
2017-07-27T09:54:20.334Z,1880
2017-07-27T09:55:20.595Z,1930
2017-07-27T09:56:20.578Z,1995
2017-07-27T09:57:20.465Z,2020
2017-07-27T09:58:20.247Z,1965
2017-07-27T09:59:20.546Z,1810
2017-07-27T10:00:20.230Z,1675
2017-07-27T10:01:20.219Z,1620
2017-07-27T10:02:19.899Z,1620
2017-07-27T10:03:20.188Z,1670
2017-07-27T10:04:20.176Z,1705
2017-07-27T10:05:20.457Z,1755
2017-07-27T10:06:20.147Z,1875
2017-07-27T10:07:20.434Z,1950
2017-07-27T10:08:20.425Z,1990
2017-07-27T10:09:20.425Z,1990
2017-07-27T10:10:20.408Z,1990
2017-07-27T10:11:20.385Z,1980
2017-07-27T10:12:20.371Z,1990
2017-07-27T10:13:20.361Z,1955
2017-07-27T10:14:20.359Z,1875
2017-07-27T10:15:20.355Z,1855
2017-07-27T10:16:20.338Z,1890
2017-07-27T10:17:20.329Z,1925
2017-07-27T10:18:20.322Z,1885
2017-07-27T10:19:19.994Z,1750
2017-07-27T10:20:20.292Z,1645
2017-07-27T10:21:20.286Z,1585
2017-07-27T10:22:19.949Z,1565
2017-07-27T10:23:20.164Z,1620
2017-07-27T10:24:20.246Z,1725
2017-07-27T10:25:20.250Z,1900
2017-07-27T10:26:19.930Z,2145
2017-07-27T10:27:19.905Z,2335
2017-07-27T10:28:20.205Z,2400
2017-07-27T10:29:20.202Z,2415
2017-07-27T10:30:19.886Z,2340
2017-07-27T10:31:19.889Z,2255
2017-07-27T10:32:20.154Z,2160
2017-07-27T10:33:20.362Z,2070
2017-07-27T10:34:34.043Z,1930
2017-07-27T10:35:20.133Z,1825
2017-07-27T10:36:20.127Z,1700
2017-07-27T10:37:20.116Z,1610
2017-07-27T10:38:20.103Z,1570
2017-07-27T10:39:20.091Z,1545
2017-07-27T10:40:19.788Z,1535
2017-07-27T10:41:20.082Z,1575
2017-07-27T10:42:20.058Z,1585
2017-07-27T10:43:20.056Z,1590
2017-07-27T10:44:20.046Z,1605
2017-07-27T10:45:20.035Z,1650
2017-07-27T10:46:20.017Z,1715
2017-07-27T10:47:19.999Z,1730
2017-07-27T10:48:19.698Z,1740
2017-07-27T10:49:19.703Z,1720
2017-07-27T10:50:19.659Z,1705
2017-07-27T10:51:19.940Z,1660
2017-07-27T10:52:19.963Z,1620
2017-07-27T10:53:19.945Z,1565
2017-07-27T10:54:19.920Z,1530
2017-07-27T10:55:19.895Z,1535
2017-07-27T10:56:19.596Z,1535
2017-07-27T10:57:19.577Z,1605
2017-07-27T10:58:19.871Z,1685
2017-07-27T10:59:19.575Z,1735
2017-07-27T11:00:19.853Z,1825
2017-07-27T11:01:19.856Z,1950
2017-07-27T11:02:19.824Z,2010
2017-07-27T11:03:19.816Z,2020
2017-07-27T11:04:19.507Z,1970
2017-07-27T11:05:19.795Z,1915
2017-07-27T11:06:19.793Z,1845
2017-07-27T11:07:19.472Z,1860
2017-07-27T11:08:19.761Z,1970
2017-07-27T11:09:19.743Z,2155
2017-07-27T11:10:19.964Z,2280
2017-07-27T11:11:19.425Z,2165
2017-07-27T11:12:19.747Z,2010
2017-07-27T11:13:19.728Z,1890
2017-07-27T11:14:19.389Z,1865
2017-07-27T11:15:19.687Z,1870
2017-07-27T11:16:19.676Z,1895
2017-07-27T11:17:19.664Z,1940
2017-07-27T11:18:19.647Z,1965
2017-07-27T11:19:19.635Z,1910
2017-07-27T11:20:19.324Z,1825
2017-07-27T11:21:19.618Z,1780
2017-07-27T11:22:19.611Z,1835
2017-07-27T11:23:19.609Z,1900
2017-07-27T11:24:19.286Z,2000
2017-07-27T11:25:19.257Z,2030
2017-07-27T11:26:19.260Z,2015
2017-07-27T11:27:19.245Z,2040
2017-07-27T11:28:19.536Z,2125
2017-07-27T11:29:19.528Z,2195
2017-07-27T11:30:19.199Z,2180
2017-07-27T11:31:19.494Z,2165
2017-07-27T11:32:19.188Z,2145
2017-07-27T11:33:19.158Z,2140
2017-07-27T11:34:19.150Z,2120
2017-07-27T11:35:19.467Z,2010
2017-07-27T11:36:19.138Z,1960
2017-07-27T11:37:19.424Z,1885
2017-07-27T11:38:19.419Z,1800
2017-07-27T11:39:19.403Z,1735
2017-07-27T11:40:19.094Z,1720
2017-07-27T11:41:19.364Z,1730
2017-07-27T11:42:19.351Z,1695
2017-07-27T11:43:19.344Z,1645
2017-07-27T11:44:19.339Z,1605
2017-07-27T11:45:19.340Z,1600
2017-07-27T11:46:19.308Z,1615
2017-07-27T11:47:19.290Z,1635
2017-07-27T11:48:18.981Z,1635
2017-07-27T11:49:19.262Z,1655
2017-07-27T11:50:18.948Z,1690
2017-07-27T11:51:19.258Z,1650
2017-07-27T11:52:19.236Z,1625
2017-07-27T11:53:18.913Z,1575
2017-07-27T11:54:19.210Z,1575
2017-07-27T11:55:19.190Z,1545
2017-07-27T11:56:19.179Z,1510
2017-07-27T11:57:19.169Z,1485
2017-07-27T11:58:19.155Z,1465
2017-07-27T11:59:19.156Z,1415
2017-07-27T12:00:19.151Z,1360
2017-07-27T12:01:18.822Z,1260
2017-07-27T12:02:19.099Z,1170
2017-07-27T12:03:19.100Z,1120
2017-07-27T12:04:18.773Z,1115
2017-07-27T12:05:19.073Z,1110
2017-07-27T12:06:19.055Z,1100
2017-07-27T12:07:19.043Z,1090
2017-07-27T12:08:19.033Z,1115
2017-07-27T12:09:19.015Z,1130
2017-07-27T12:10:19.016Z,1125
2017-07-27T12:11:19.013Z,1110
2017-07-27T12:12:18.698Z,1115
2017-07-27T12:13:18.976Z,1120
2017-07-27T12:14:18.964Z,1080
2017-07-27T12:15:18.946Z,1040
2017-07-27T12:16:18.630Z,1025
2017-07-27T12:17:18.615Z,1010
2017-07-27T12:18:18.908Z,970
2017-07-27T12:19:18.906Z,925
2017-07-27T12:20:18.879Z,905
2017-07-27T12:21:18.571Z,865
2017-07-27T12:22:18.854Z,870
2017-07-27T12:23:18.540Z,890
2017-07-27T12:24:18.835Z,920
2017-07-27T12:25:18.520Z,965
2017-07-27T12:26:18.506Z,965
2017-07-27T12:27:18.977Z,925
2017-07-27T12:28:18.790Z,920
2017-07-27T12:29:18.766Z,890
2017-07-27T12:30:18.768Z,880
2017-07-27T12:31:18.726Z,875
2017-07-27T12:32:18.431Z,890
2017-07-27T12:33:18.718Z,865
2017-07-27T12:34:18.687Z,830
2017-07-27T12:35:18.695Z,840
2017-07-27T12:36:18.678Z,860
2017-07-27T12:37:18.669Z,905
2017-07-27T12:38:18.341Z,930
2017-07-27T12:39:18.640Z,935
2017-07-27T12:40:18.016Z,955
2017-07-27T12:41:18.620Z,970
2017-07-27T12:42:18.305Z,970
2017-07-27T12:43:18.589Z,925
2017-07-27T12:44:18.585Z,870
2017-07-27T12:45:18.566Z,840
2017-07-27T12:46:18.548Z,860
2017-07-27T12:47:18.225Z,945
2017-07-27T12:48:18.543Z,940
2017-07-27T12:49:17.913Z,945
2017-07-27T12:50:18.496Z,955
2017-07-27T12:51:18.491Z,1060
2017-07-27T12:52:18.491Z,1125
2017-07-27T12:53:18.467Z,1095
2017-07-27T12:54:18.459Z,1080
2017-07-27T12:55:18.448Z,1055
2017-07-27T12:56:18.125Z,1010
2017-07-27T12:57:18.413Z,1030
2017-07-27T12:58:18.431Z,1000
2017-07-27T12:59:18.413Z,1060
2017-07-27T13:00:18.384Z,1040
2017-07-27T13:01:18.365Z,1080
2017-07-27T13:02:18.047Z,1125
2017-07-27T13:03:18.046Z,1125
2017-07-27T13:04:18.042Z,1060
2017-07-27T13:05:18.007Z,1065
2017-07-27T13:06:18.302Z,1175
2017-07-27T13:07:18.297Z,1170
2017-07-27T13:08:18.285Z,1215
2017-07-27T13:09:17.963Z,1280
2017-07-27T13:10:17.943Z,1340
2017-07-27T13:11:18.246Z,1370
2017-07-27T13:12:18.232Z,1415
2017-07-27T13:13:17.928Z,1680
2017-07-27T13:14:17.915Z,1765
2017-07-27T13:15:18.190Z,1870
2017-07-27T13:16:17.872Z,1885
2017-07-27T13:17:17.865Z,1630
2017-07-27T13:18:18.141Z,1400
2017-07-27T13:19:18.159Z,1265
2017-07-27T13:20:18.127Z,1275
2017-07-27T13:21:18.103Z,1290
2017-07-27T13:22:18.103Z,1350
2017-07-27T13:23:18.100Z,1150
2017-07-27T13:24:17.771Z,1210
2017-07-27T13:25:18.086Z,1255
2017-07-27T13:26:18.061Z,1280
2017-07-27T13:27:18.037Z,1250
2017-07-27T13:28:17.734Z,1125
2017-07-27T13:29:18.017Z,1090
2017-07-27T13:30:18.023Z,1025
2017-07-27T13:31:17.983Z,1050
2017-07-27T13:32:17.979Z,975
2017-07-27T13:33:17.967Z,970
2017-07-27T13:34:17.954Z,920
2017-07-27T13:35:17.953Z,875
2017-07-27T13:36:17.929Z,890
2017-07-27T13:37:17.927Z,840
2017-07-27T13:38:17.909Z,810
2017-07-27T13:39:17.883Z,815
2017-07-27T13:40:17.870Z,835
2017-07-27T13:41:17.263Z,805
2017-07-27T13:42:17.841Z,810
2017-07-27T13:43:17.829Z,845
2017-07-27T13:44:17.824Z,885
2017-07-27T13:45:17.808Z,975
2017-07-27T13:46:17.789Z,1085
2017-07-27T13:47:17.784Z,1095
2017-07-27T13:48:17.756Z,1040
2017-07-27T13:49:17.738Z,960
2017-07-27T13:50:17.435Z,950
2017-07-27T13:51:17.713Z,945
2017-07-27T13:52:17.701Z,995
2017-07-27T13:53:17.391Z,960
2017-07-27T13:54:17.690Z,970
2017-07-27T13:55:17.050Z,1080